sensor_id;sensor_type;location;lat;lon;timestamp;temperature;humidity
42479;DHT22;28110;47.080;9.476;2023-07-30T00:01:12;18.10;99.90
42479;DHT22;28110;47.080;9.476;2023-07-30T00:03:37;18.10;99.90
42479;DHT22;28110;47.080;9.476;2023-07-30T00:06:03;18.10;99.90
42479;DHT22;28110;47.080;9.476;2023-07-30T00:08:28;18.10;99.90
42479;DHT22;28110;47.080;9.476;2023-07-30T00:10:56;18.00;99.90
42479;DHT22;28110;47.080;9.476;2023-07-30T00:13:23;18.10;99.90
42479;DHT22;28110;47.080;9.476;2023-07-30T00:15:48;18.00;99.90
42479;DHT22;28110;47.080;9.476;2023-07-30T00:18:14;18.10;99.90
42479;DHT22;28110;47.080;9.476;2023-07-30T00:20:40;18.00;99.90
42479;DHT22;28110;47.080;9.476;2023-07-30T00:23:06;18.00;99.90
42479;DHT22;28110;47.080;9.476;2023-07-30T00:25:31;18.00;99.90
42479;DHT22;28110;47.080;9.476;2023-07-30T00:27:57;18.00;99.90
42479;DHT22;28110;47.080;9.476;2023-07-30T00:30:22;17.90;99.90
42479;DHT22;28110;47.080;9.476;2023-07-30T00:32:48;17.90;99.90
42479;DHT22;28110;47.080;9.476;2023-07-30T00:35:13;17.90;99.90
42479;DHT22;28110;47.080;9.476;2023-07-30T00:37:39;17.90;99.90
42479;DHT22;28110;47.080;9.476;2023-07-30T00:40:05;17.80;99.90
42479;DHT22;28110;47.080;9.476;2023-07-30T00:42:31;17.80;99.90
42479;DHT22;28110;47.080;9.476;2023-07-30T00:44:56;17.80;99.90
42479;DHT22;28110;47.080;9.476;2023-07-30T00:47:22;17.70;99.90
42479;DHT22;28110;47.080;9.476;2023-07-30T00:49:48;17.80;99.90
42479;DHT22;28110;47.080;9.476;2023-07-30T00:52:18;17.70;99.90
42479;DHT22;28110;47.080;9.476;2023-07-30T00:54:45;17.60;99.90
42479;DHT22;28110;47.080;9.476;2023-07-30T00:57:12;17.60;99.90
42479;DHT22;28110;47.080;9.476;2023-07-30T00:59:37;17.60;99.90
42479;DHT22;28110;47.080;9.476;2023-07-30T01:02:04;17.60;99.90
42479;DHT22;28110;47.080;9.476;2023-07-30T01:04:30;17.60;99.90
42479;DHT22;28110;47.080;9.476;2023-07-30T01:06:56;17.70;99.90
42479;DHT22;28110;47.080;9.476;2023-07-30T01:09:22;17.80;99.90
42479;DHT22;28110;47.080;9.476;2023-07-30T01:11:48;17.80;99.90
42479;DHT22;28110;47.080;9.476;2023-07-30T01:14:14;17.80;99.90
42479;DHT22;28110;47.080;9.476;2023-07-30T01:16:40;17.80;99.90
42479;DHT22;28110;47.080;9.476;2023-07-30T01:19:06;17.80;99.90
42479;DHT22;28110;47.080;9.476;2023-07-30T01:21:36;17.80;99.90
42479;DHT22;28110;47.080;9.476;2023-07-30T01:24:01;17.80;99.90
42479;DHT22;28110;47.080;9.476;2023-07-30T01:26:36;17.80;99.90
42479;DHT22;28110;47.080;9.476;2023-07-30T01:29:06;17.80;99.90
42479;DHT22;28110;47.080;9.476;2023-07-30T01:31:34;17.80;99.90
42479;DHT22;28110;47.080;9.476;2023-07-30T01:34:01;17.80;99.90
42479;DHT22;28110;47.080;9.476;2023-07-30T01:36:28;17.80;99.90
42479;DHT22;28110;47.080;9.476;2023-07-30T01:38:55;17.70;99.90
42479;DHT22;28110;47.080;9.476;2023-07-30T01:41:21;17.70;99.90
42479;DHT22;28110;47.080;9.476;2023-07-30T01:43:47;17.70;99.90
42479;DHT22;28110;47.080;9.476;2023-07-30T01:46:13;17.70;99.90
42479;DHT22;28110;47.080;9.476;2023-07-30T01:48:38;17.70;99.90
42479;DHT22;28110;47.080;9.476;2023-07-30T01:51:04;17.70;99.90
42479;DHT22;28110;47.080;9.476;2023-07-30T01:53:29;17.70;99.90
42479;DHT22;28110;47.080;9.476;2023-07-30T01:55:55;17.70;99.90
42479;DHT22;28110;47.080;9.476;2023-07-30T01:58:20;17.70;99.90
42479;DHT22;28110;47.080;9.476;2023-07-30T02:00:46;17.70;99.90
42479;DHT22;28110;47.080;9.476;2023-07-30T02:03:12;17.70;99.90
42479;DHT22;28110;47.080;9.476;2023-07-30T02:05:37;17.70;99.90
42479;DHT22;28110;47.080;9.476;2023-07-30T02:08:03;17.60;99.90
42479;DHT22;28110;47.080;9.476;2023-07-30T02:10:29;17.60;99.90
42479;DHT22;28110;47.080;9.476;2023-07-30T02:12:54;17.60;99.90
42479;DHT22;28110;47.080;9.476;2023-07-30T02:15:20;17.60;99.90
42479;DHT22;28110;47.080;9.476;2023-07-30T02:17:45;17.60;99.90
42479;DHT22;28110;47.080;9.476;2023-07-30T02:20:11;17.60;99.90
42479;DHT22;28110;47.080;9.476;2023-07-30T02:22:36;17.60;99.90
42479;DHT22;28110;47.080;9.476;2023-07-30T02:25:02;17.60;99.90
42479;DHT22;28110;47.080;9.476;2023-07-30T02:27:27;17.50;99.90
42479;DHT22;28110;47.080;9.476;2023-07-30T02:29:53;17.50;99.90
42479;DHT22;28110;47.080;9.476;2023-07-30T02:32:18;17.50;99.90
42479;DHT22;28110;47.080;9.476;2023-07-30T02:34:44;17.50;99.90
42479;DHT22;28110;47.080;9.476;2023-07-30T02:37:09;17.60;99.90
42479;DHT22;28110;47.080;9.476;2023-07-30T02:39:35;17.60;99.90
42479;DHT22;28110;47.080;9.476;2023-07-30T02:42:00;17.60;99.90
42479;DHT22;28110;47.080;9.476;2023-07-30T02:44:26;17.60;99.90
42479;DHT22;28110;47.080;9.476;2023-07-30T02:46:51;17.50;99.90
42479;DHT22;28110;47.080;9.476;2023-07-30T02:49:17;17.50;99.90
42479;DHT22;28110;47.080;9.476;2023-07-30T02:51:42;17.50;99.90
42479;DHT22;28110;47.080;9.476;2023-07-30T02:54:13;17.50;99.90
42479;DHT22;28110;47.080;9.476;2023-07-30T02:56:39;17.50;99.90
42479;DHT22;28110;47.080;9.476;2023-07-30T02:59:05;17.50;99.90
42479;DHT22;28110;47.080;9.476;2023-07-30T03:01:30;17.50;99.90
42479;DHT22;28110;47.080;9.476;2023-07-30T03:03:56;17.40;99.90
42479;DHT22;28110;47.080;9.476;2023-07-30T03:06:21;17.40;99.90
42479;DHT22;28110;47.080;9.476;2023-07-30T03:08:47;17.40;99.90
42479;DHT22;28110;47.080;9.476;2023-07-30T03:11:12;17.40;99.90
42479;DHT22;28110;47.080;9.476;2023-07-30T03:13:39;17.40;99.90
42479;DHT22;28110;47.080;9.476;2023-07-30T03:16:04;17.40;99.90
42479;DHT22;28110;47.080;9.476;2023-07-30T03:18:30;17.40;99.90
42479;DHT22;28110;47.080;9.476;2023-07-30T03:20:59;17.40;99.90
42479;DHT22;28110;47.080;9.476;2023-07-30T03:23:25;17.50;99.90
42479;DHT22;28110;47.080;9.476;2023-07-30T03:25:51;17.50;99.90
42479;DHT22;28110;47.080;9.476;2023-07-30T03:28:16;17.50;99.90
42479;DHT22;28110;47.080;9.476;2023-07-30T03:30:42;17.40;99.90
42479;DHT22;28110;47.080;9.476;2023-07-30T03:33:07;17.40;99.90
42479;DHT22;28110;47.080;9.476;2023-07-30T03:35:33;17.40;99.90
42479;DHT22;28110;47.080;9.476;2023-07-30T03:37:58;17.40;99.90
42479;DHT22;28110;47.080;9.476;2023-07-30T03:40:24;17.40;99.90
42479;DHT22;28110;47.080;9.476;2023-07-30T03:42:50;17.40;99.90
42479;DHT22;28110;47.080;9.476;2023-07-30T03:45:16;17.40;99.90
42479;DHT22;28110;47.080;9.476;2023-07-30T03:47:42;17.30;99.90
42479;DHT22;28110;47.080;9.476;2023-07-30T03:50:07;17.40;99.90
42479;DHT22;28110;47.080;9.476;2023-07-30T03:52:33;17.30;99.90
42479;DHT22;28110;47.080;9.476;2023-07-30T03:54:58;17.30;99.90
42479;DHT22;28110;47.080;9.476;2023-07-30T03:57:24;17.30;99.90
42479;DHT22;28110;47.080;9.476;2023-07-30T03:59:49;17.30;99.90
42479;DHT22;28110;47.080;9.476;2023-07-30T04:02:15;17.30;99.90
42479;DHT22;28110;47.080;9.476;2023-07-30T04:04:42;17.30;99.90
42479;DHT22;28110;47.080;9.476;2023-07-30T04:07:10;17.30;99.90
42479;DHT22;28110;47.080;9.476;2023-07-30T04:09:36;17.30;99.90
42479;DHT22;28110;47.080;9.476;2023-07-30T04:12:01;17.20;99.90
42479;DHT22;28110;47.080;9.476;2023-07-30T04:14:27;17.20;99.90
42479;DHT22;28110;47.080;9.476;2023-07-30T04:16:52;17.20;99.90
42479;DHT22;28110;47.080;9.476;2023-07-30T04:19:18;17.20;99.90
42479;DHT22;28110;47.080;9.476;2023-07-30T04:21:43;17.20;99.90
42479;DHT22;28110;47.080;9.476;2023-07-30T04:24:09;17.20;99.90
42479;DHT22;28110;47.080;9.476;2023-07-30T04:26:34;17.30;99.90
42479;DHT22;28110;47.080;9.476;2023-07-30T04:29:00;17.30;99.90
42479;DHT22;28110;47.080;9.476;2023-07-30T04:31:25;17.30;99.90
42479;DHT22;28110;47.080;9.476;2023-07-30T04:33:51;17.30;99.90
42479;DHT22;28110;47.080;9.476;2023-07-30T04:36:16;17.30;99.90
42479;DHT22;28110;47.080;9.476;2023-07-30T04:38:42;17.30;99.90
42479;DHT22;28110;47.080;9.476;2023-07-30T04:41:07;17.40;99.90
42479;DHT22;28110;47.080;9.476;2023-07-30T04:43:33;17.40;99.90
42479;DHT22;28110;47.080;9.476;2023-07-30T04:45:59;17.40;99.90
42479;DHT22;28110;47.080;9.476;2023-07-30T04:48:24;17.40;99.90
42479;DHT22;28110;47.080;9.476;2023-07-30T04:50:50;17.40;99.90
42479;DHT22;28110;47.080;9.476;2023-07-30T04:53:15;17.40;99.90
42479;DHT22;28110;47.080;9.476;2023-07-30T04:55:42;17.40;99.90
42479;DHT22;28110;47.080;9.476;2023-07-30T04:58:07;17.40;99.90
42479;DHT22;28110;47.080;9.476;2023-07-30T05:00:33;17.50;99.90
42479;DHT22;28110;47.080;9.476;2023-07-30T05:02:59;17.40;99.90
42479;DHT22;28110;47.080;9.476;2023-07-30T05:05:24;17.40;99.90
42479;DHT22;28110;47.080;9.476;2023-07-30T05:07:50;17.40;99.90
42479;DHT22;28110;47.080;9.476;2023-07-30T05:10:15;17.50;99.90
42479;DHT22;28110;47.080;9.476;2023-07-30T05:12:41;17.40;99.90
42479;DHT22;28110;47.080;9.476;2023-07-30T05:15:07;17.50;99.90
42479;DHT22;28110;47.080;9.476;2023-07-30T05:17:33;17.50;99.90
42479;DHT22;28110;47.080;9.476;2023-07-30T05:19:58;17.50;99.90
42479;DHT22;28110;47.080;9.476;2023-07-30T05:22:24;17.50;99.90
42479;DHT22;28110;47.080;9.476;2023-07-30T05:24:50;17.50;99.90
42479;DHT22;28110;47.080;9.476;2023-07-30T05:27:16;17.50;99.90
42479;DHT22;28110;47.080;9.476;2023-07-30T05:29:41;17.50;99.90
42479;DHT22;28110;47.080;9.476;2023-07-30T05:32:08;17.60;99.90
42479;DHT22;28110;47.080;9.476;2023-07-30T05:34:33;17.60;99.90
42479;DHT22;28110;47.080;9.476;2023-07-30T05:36:59;17.60;99.90
42479;DHT22;28110;47.080;9.476;2023-07-30T05:39:24;17.60;99.90
42479;DHT22;28110;47.080;9.476;2023-07-30T05:41:50;17.60;99.90
42479;DHT22;28110;47.080;9.476;2023-07-30T05:44:15;17.60;99.90
42479;DHT22;28110;47.080;9.476;2023-07-30T05:46:41;17.60;99.90
42479;DHT22;28110;47.080;9.476;2023-07-30T05:49:06;17.70;99.90
42479;DHT22;28110;47.080;9.476;2023-07-30T05:51:32;17.70;99.90
42479;DHT22;28110;47.080;9.476;2023-07-30T05:53:57;17.80;99.90
42479;DHT22;28110;47.080;9.476;2023-07-30T05:56:23;17.80;99.90
42479;DHT22;28110;47.080;9.476;2023-07-30T05:58:48;17.80;99.90
42479;DHT22;28110;47.080;9.476;2023-07-30T06:01:14;17.90;99.90
42479;DHT22;28110;47.080;9.476;2023-07-30T06:03:39;17.90;99.90
42479;DHT22;28110;47.080;9.476;2023-07-30T06:06:05;18.10;99.90
42479;DHT22;28110;47.080;9.476;2023-07-30T06:08:30;18.40;99.90
42479;DHT22;28110;47.080;9.476;2023-07-30T06:11:01;18.80;99.90
42479;DHT22;28110;47.080;9.476;2023-07-30T06:13:28;19.10;99.90
42479;DHT22;28110;47.080;9.476;2023-07-30T06:15:54;19.20;99.90
42479;DHT22;28110;47.080;9.476;2023-07-30T06:18:20;19.30;99.90
42479;DHT22;28110;47.080;9.476;2023-07-30T06:20:46;19.30;99.90
42479;DHT22;28110;47.080;9.476;2023-07-30T06:23:11;19.30;99.90
42479;DHT22;28110;47.080;9.476;2023-07-30T06:25:37;19.50;99.90
42479;DHT22;28110;47.080;9.476;2023-07-30T06:28:04;19.80;99.90
42479;DHT22;28110;47.080;9.476;2023-07-30T06:30:29;20.10;99.90
42479;DHT22;28110;47.080;9.476;2023-07-30T06:32:55;20.50;99.90
42479;DHT22;28110;47.080;9.476;2023-07-30T06:35:20;20.70;99.90
42479;DHT22;28110;47.080;9.476;2023-07-30T06:37:46;20.70;99.90
42479;DHT22;28110;47.080;9.476;2023-07-30T06:40:11;20.50;99.90
42479;DHT22;28110;47.080;9.476;2023-07-30T06:42:37;20.30;99.90
42479;DHT22;28110;47.080;9.476;2023-07-30T06:45:03;20.20;99.90
42479;DHT22;28110;47.080;9.476;2023-07-30T06:47:28;20.10;99.90
42479;DHT22;28110;47.080;9.476;2023-07-30T06:49:54;20.00;99.90
42479;DHT22;28110;47.080;9.476;2023-07-30T06:52:20;20.00;99.90
42479;DHT22;28110;47.080;9.476;2023-07-30T06:54:45;20.00;99.90
42479;DHT22;28110;47.080;9.476;2023-07-30T06:57:11;19.90;99.90
42479;DHT22;28110;47.080;9.476;2023-07-30T06:59:36;19.90;99.90
42479;DHT22;28110;47.080;9.476;2023-07-30T07:02:02;19.80;99.90
42479;DHT22;28110;47.080;9.476;2023-07-30T07:04:28;19.80;99.90
42479;DHT22;28110;47.080;9.476;2023-07-30T07:06:53;19.80;99.90
42479;DHT22;28110;47.080;9.476;2023-07-30T07:09:19;19.70;99.90
42479;DHT22;28110;47.080;9.476;2023-07-30T07:11:44;19.70;99.90
42479;DHT22;28110;47.080;9.476;2023-07-30T07:14:10;19.70;99.90
42479;DHT22;28110;47.080;9.476;2023-07-30T07:16:35;19.70;99.90
42479;DHT22;28110;47.080;9.476;2023-07-30T07:19:01;19.70;99.90
42479;DHT22;28110;47.080;9.476;2023-07-30T07:21:26;19.60;99.90
42479;DHT22;28110;47.080;9.476;2023-07-30T07:23:52;19.50;99.90
42479;DHT22;28110;47.080;9.476;2023-07-30T07:26:17;19.50;99.90
42479;DHT22;28110;47.080;9.476;2023-07-30T07:28:43;19.40;99.90
42479;DHT22;28110;47.080;9.476;2023-07-30T07:31:08;19.40;99.90
42479;DHT22;28110;47.080;9.476;2023-07-30T07:33:34;19.40;99.90
42479;DHT22;28110;47.080;9.476;2023-07-30T07:36:07;19.40;99.90
42479;DHT22;28110;47.080;9.476;2023-07-30T07:38:33;19.40;99.90
42479;DHT22;28110;47.080;9.476;2023-07-30T07:41:00;19.50;99.90
42479;DHT22;28110;47.080;9.476;2023-07-30T07:43:27;19.60;99.90
42479;DHT22;28110;47.080;9.476;2023-07-30T07:45:53;19.60;99.90
42479;DHT22;28110;47.080;9.476;2023-07-30T07:48:19;19.60;99.90
42479;DHT22;28110;47.080;9.476;2023-07-30T07:50:45;19.70;99.90
42479;DHT22;28110;47.080;9.476;2023-07-30T07:53:10;19.70;99.90
42479;DHT22;28110;47.080;9.476;2023-07-30T07:55:36;19.90;99.90
42479;DHT22;28110;47.080;9.476;2023-07-30T07:58:01;20.20;99.90
42479;DHT22;28110;47.080;9.476;2023-07-30T08:00:27;20.30;99.90
42479;DHT22;28110;47.080;9.476;2023-07-30T08:02:52;20.50;99.90
42479;DHT22;28110;47.080;9.476;2023-07-30T08:05:18;20.70;99.90
42479;DHT22;28110;47.080;9.476;2023-07-30T08:07:46;20.70;99.90
42479;DHT22;28110;47.080;9.476;2023-07-30T08:10:12;20.70;99.90
42479;DHT22;28110;47.080;9.476;2023-07-30T08:12:37;20.70;99.90
42479;DHT22;28110;47.080;9.476;2023-07-30T08:15:03;20.60;99.90
42479;DHT22;28110;47.080;9.476;2023-07-30T08:17:29;20.50;99.90
42479;DHT22;28110;47.080;9.476;2023-07-30T08:19:54;20.40;99.90
42479;DHT22;28110;47.080;9.476;2023-07-30T08:22:20;20.40;99.90
42479;DHT22;28110;47.080;9.476;2023-07-30T08:24:45;20.40;99.90
42479;DHT22;28110;47.080;9.476;2023-07-30T08:27:11;20.40;99.90
42479;DHT22;28110;47.080;9.476;2023-07-30T08:29:36;20.40;99.90
42479;DHT22;28110;47.080;9.476;2023-07-30T08:32:02;20.40;99.90
42479;DHT22;28110;47.080;9.476;2023-07-30T08:34:28;20.40;99.90
42479;DHT22;28110;47.080;9.476;2023-07-30T08:36:53;20.40;99.90
42479;DHT22;28110;47.080;9.476;2023-07-30T08:39:19;20.40;99.90
42479;DHT22;28110;47.080;9.476;2023-07-30T08:41:45;20.80;99.90
42479;DHT22;28110;47.080;9.476;2023-07-30T08:44:12;21.10;99.90
42479;DHT22;28110;47.080;9.476;2023-07-30T08:46:38;21.20;99.90
42479;DHT22;28110;47.080;9.476;2023-07-30T08:49:04;21.40;99.90
42479;DHT22;28110;47.080;9.476;2023-07-30T08:51:31;21.50;99.90
42479;DHT22;28110;47.080;9.476;2023-07-30T08:54:00;21.80;99.90
42479;DHT22;28110;47.080;9.476;2023-07-30T08:56:26;22.10;99.90
42479;DHT22;28110;47.080;9.476;2023-07-30T08:58:52;22.30;99.90
42479;DHT22;28110;47.080;9.476;2023-07-30T09:01:22;22.50;99.90
42479;DHT22;28110;47.080;9.476;2023-07-30T09:03:52;22.60;99.90
42479;DHT22;28110;47.080;9.476;2023-07-30T09:06:18;22.70;99.90
42479;DHT22;28110;47.080;9.476;2023-07-30T09:08:43;22.60;99.90
42479;DHT22;28110;47.080;9.476;2023-07-30T09:11:10;22.70;99.90
42479;DHT22;28110;47.080;9.476;2023-07-30T09:13:40;23.00;99.90
42479;DHT22;28110;47.080;9.476;2023-07-30T09:16:13;23.10;99.90
42479;DHT22;28110;47.080;9.476;2023-07-30T09:18:45;23.10;99.90
42479;DHT22;28110;47.080;9.476;2023-07-30T09:21:14;23.00;99.90
42479;DHT22;28110;47.080;9.476;2023-07-30T09:23:44;22.80;99.90
42479;DHT22;28110;47.080;9.476;2023-07-30T09:26:10;22.70;99.90
42479;DHT22;28110;47.080;9.476;2023-07-30T09:28:36;22.70;99.90
42479;DHT22;28110;47.080;9.476;2023-07-30T09:31:06;22.70;99.90
42479;DHT22;28110;47.080;9.476;2023-07-30T09:33:32;22.60;99.90
42479;DHT22;28110;47.080;9.476;2023-07-30T09:36:01;22.60;99.90
42479;DHT22;28110;47.080;9.476;2023-07-30T09:38:27;22.60;99.90
42479;DHT22;28110;47.080;9.476;2023-07-30T09:41:00;22.50;99.90
42479;DHT22;28110;47.080;9.476;2023-07-30T09:43:32;22.30;99.90
42479;DHT22;28110;47.080;9.476;2023-07-30T09:46:02;22.20;99.90
42479;DHT22;28110;47.080;9.476;2023-07-30T09:48:32;21.90;99.90
42479;DHT22;28110;47.080;9.476;2023-07-30T09:50:59;21.80;99.90
42479;DHT22;28110;47.080;9.476;2023-07-30T09:53:25;21.60;99.90
42479;DHT22;28110;47.080;9.476;2023-07-30T09:55:52;21.50;99.90
42479;DHT22;28110;47.080;9.476;2023-07-30T09:58:17;21.40;99.90
42479;DHT22;28110;47.080;9.476;2023-07-30T10:00:44;21.30;99.90
42479;DHT22;28110;47.080;9.476;2023-07-30T10:03:12;21.20;99.90
42479;DHT22;28110;47.080;9.476;2023-07-30T10:05:39;21.10;99.90
42479;DHT22;28110;47.080;9.476;2023-07-30T10:08:31;21.00;99.90
42479;DHT22;28110;47.080;9.476;2023-07-30T10:11:00;20.90;99.90
42479;DHT22;28110;47.080;9.476;2023-07-30T10:13:27;20.90;99.90
42479;DHT22;28110;47.080;9.476;2023-07-30T10:15:54;20.90;99.90
42479;DHT22;28110;47.080;9.476;2023-07-30T10:18:20;20.90;99.90
42479;DHT22;28110;47.080;9.476;2023-07-30T10:20:53;21.00;99.90
42479;DHT22;28110;47.080;9.476;2023-07-30T10:23:20;21.00;99.90
42479;DHT22;28110;47.080;9.476;2023-07-30T10:25:49;21.10;99.90
42479;DHT22;28110;47.080;9.476;2023-07-30T10:30:56;21.10;99.90
42479;DHT22;28110;47.080;9.476;2023-07-30T10:33:22;21.10;99.90
42479;DHT22;28110;47.080;9.476;2023-07-30T10:35:48;21.20;99.90
42479;DHT22;28110;47.080;9.476;2023-07-30T10:38:20;21.10;99.90
42479;DHT22;28110;47.080;9.476;2023-07-30T10:41:04;21.20;99.90
42479;DHT22;28110;47.080;9.476;2023-07-30T10:43:33;21.20;99.90
42479;DHT22;28110;47.080;9.476;2023-07-30T10:45:59;21.30;99.90
42479;DHT22;28110;47.080;9.476;2023-07-30T10:48:37;21.40;99.90
42479;DHT22;28110;47.080;9.476;2023-07-30T10:51:05;21.50;99.90
42479;DHT22;28110;47.080;9.476;2023-07-30T10:53:31;21.50;99.90
42479;DHT22;28110;47.080;9.476;2023-07-30T10:56:00;21.40;99.90
42479;DHT22;28110;47.080;9.476;2023-07-30T10:58:28;21.40;99.90
42479;DHT22;28110;47.080;9.476;2023-07-30T11:00:54;21.40;99.90
42479;DHT22;28110;47.080;9.476;2023-07-30T11:03:20;21.30;99.90
42479;DHT22;28110;47.080;9.476;2023-07-30T11:05:48;21.30;99.90
42479;DHT22;28110;47.080;9.476;2023-07-30T11:08:14;21.20;99.90
42479;DHT22;28110;47.080;9.476;2023-07-30T11:10:44;21.10;99.90
42479;DHT22;28110;47.080;9.476;2023-07-30T11:13:11;20.90;99.90
42479;DHT22;28110;47.080;9.476;2023-07-30T11:15:43;20.80;99.90
42479;DHT22;28110;47.080;9.476;2023-07-30T11:18:12;20.70;99.90
42479;DHT22;28110;47.080;9.476;2023-07-30T11:20:38;20.60;99.90
42479;DHT22;28110;47.080;9.476;2023-07-30T11:23:24;20.50;99.90
42479;DHT22;28110;47.080;9.476;2023-07-30T11:25:50;20.50;99.90
42479;DHT22;28110;47.080;9.476;2023-07-30T11:28:36;20.40;99.90
42479;DHT22;28110;47.080;9.476;2023-07-30T11:31:10;20.40;99.90
42479;DHT22;28110;47.080;9.476;2023-07-30T11:33:40;20.40;99.90
42479;DHT22;28110;47.080;9.476;2023-07-30T11:36:08;20.40;99.90
42479;DHT22;28110;47.080;9.476;2023-07-30T11:38:34;20.50;99.90
42479;DHT22;28110;47.080;9.476;2023-07-30T11:41:01;20.60;99.90
42479;DHT22;28110;47.080;9.476;2023-07-30T11:43:27;20.70;99.90
42479;DHT22;28110;47.080;9.476;2023-07-30T11:46:12;20.80;99.90
42479;DHT22;28110;47.080;9.476;2023-07-30T11:48:40;21.00;99.90
42479;DHT22;28110;47.080;9.476;2023-07-30T11:51:05;21.10;99.90
42479;DHT22;28110;47.080;9.476;2023-07-30T11:56:30;21.70;99.90
42479;DHT22;28110;47.080;9.476;2023-07-30T11:58:58;21.90;99.90
42479;DHT22;28110;47.080;9.476;2023-07-30T12:01:26;22.00;99.90
42479;DHT22;28110;47.080;9.476;2023-07-30T12:03:59;22.30;99.90
42479;DHT22;28110;47.080;9.476;2023-07-30T12:06:42;22.70;99.90
42479;DHT22;28110;47.080;9.476;2023-07-30T12:09:18;22.90;99.90
42479;DHT22;28110;47.080;9.476;2023-07-30T12:11:53;23.00;99.90
42479;DHT22;28110;47.080;9.476;2023-07-30T12:14:22;23.10;99.90
42479;DHT22;28110;47.080;9.476;2023-07-30T12:16:48;23.20;99.90
42479;DHT22;28110;47.080;9.476;2023-07-30T12:19:13;23.40;99.90
42479;DHT22;28110;47.080;9.476;2023-07-30T12:21:39;23.50;99.90
42479;DHT22;28110;47.080;9.476;2023-07-30T12:24:05;23.60;99.90
42479;DHT22;28110;47.080;9.476;2023-07-30T12:26:31;23.60;99.90
42479;DHT22;28110;47.080;9.476;2023-07-30T12:28:56;23.60;99.90
42479;DHT22;28110;47.080;9.476;2023-07-30T12:31:22;23.60;99.90
42479;DHT22;28110;47.080;9.476;2023-07-30T12:33:47;23.60;99.90
42479;DHT22;28110;47.080;9.476;2023-07-30T12:36:13;23.60;99.90
42479;DHT22;28110;47.080;9.476;2023-07-30T12:38:39;23.60;99.90
42479;DHT22;28110;47.080;9.476;2023-07-30T12:41:05;23.60;99.90
42479;DHT22;28110;47.080;9.476;2023-07-30T12:43:30;23.60;99.90
42479;DHT22;28110;47.080;9.476;2023-07-30T12:45:56;23.60;99.90
42479;DHT22;28110;47.080;9.476;2023-07-30T12:48:21;23.60;99.90
42479;DHT22;28110;47.080;9.476;2023-07-30T12:50:47;23.70;99.90
42479;DHT22;28110;47.080;9.476;2023-07-30T12:53:12;23.70;99.90
42479;DHT22;28110;47.080;9.476;2023-07-30T12:55:39;23.70;99.90
42479;DHT22;28110;47.080;9.476;2023-07-30T12:58:04;23.70;99.90
42479;DHT22;28110;47.080;9.476;2023-07-30T13:00:31;23.70;99.90
42479;DHT22;28110;47.080;9.476;2023-07-30T13:02:56;23.80;99.90
42479;DHT22;28110;47.080;9.476;2023-07-30T13:05:22;23.80;99.90
42479;DHT22;28110;47.080;9.476;2023-07-30T13:07:48;23.80;99.90
42479;DHT22;28110;47.080;9.476;2023-07-30T13:10:14;23.80;99.90
42479;DHT22;28110;47.080;9.476;2023-07-30T13:12:40;23.70;99.90
42479;DHT22;28110;47.080;9.476;2023-07-30T13:15:06;23.70;99.90
42479;DHT22;28110;47.080;9.476;2023-07-30T13:17:31;23.70;99.90
42479;DHT22;28110;47.080;9.476;2023-07-30T13:19:57;23.80;99.90
42479;DHT22;28110;47.080;9.476;2023-07-30T13:22:23;23.80;99.90
42479;DHT22;28110;47.080;9.476;2023-07-30T13:24:49;23.80;99.90
42479;DHT22;28110;47.080;9.476;2023-07-30T13:27:14;23.90;99.90
42479;DHT22;28110;47.080;9.476;2023-07-30T13:29:40;23.90;99.90
42479;DHT22;28110;47.080;9.476;2023-07-30T13:32:06;23.90;99.90
42479;DHT22;28110;47.080;9.476;2023-07-30T13:34:32;23.90;99.90
42479;DHT22;28110;47.080;9.476;2023-07-30T13:36:57;23.90;99.90
42479;DHT22;28110;47.080;9.476;2023-07-30T13:39:23;24.00;99.90
42479;DHT22;28110;47.080;9.476;2023-07-30T13:41:48;24.00;99.90
42479;DHT22;28110;47.080;9.476;2023-07-30T13:44:14;24.00;99.90
42479;DHT22;28110;47.080;9.476;2023-07-30T13:46:39;24.00;99.90
42479;DHT22;28110;47.080;9.476;2023-07-30T13:49:06;24.00;99.90
42479;DHT22;28110;47.080;9.476;2023-07-30T13:51:32;23.90;99.90
42479;DHT22;28110;47.080;9.476;2023-07-30T13:54:01;23.90;99.90
42479;DHT22;28110;47.080;9.476;2023-07-30T13:56:27;24.10;99.90
42479;DHT22;28110;47.080;9.476;2023-07-30T13:58:53;24.00;99.90
42479;DHT22;28110;47.080;9.476;2023-07-30T14:01:19;24.00;99.90
42479;DHT22;28110;47.080;9.476;2023-07-30T14:03:44;24.00;99.90
42479;DHT22;28110;47.080;9.476;2023-07-30T14:06:10;23.90;99.90
42479;DHT22;28110;47.080;9.476;2023-07-30T14:08:36;23.80;99.90
42479;DHT22;28110;47.080;9.476;2023-07-30T14:11:02;23.70;99.90
42479;DHT22;28110;47.080;9.476;2023-07-30T14:13:27;23.70;99.90
42479;DHT22;28110;47.080;9.476;2023-07-30T14:15:53;23.70;99.90
42479;DHT22;28110;47.080;9.476;2023-07-30T14:18:19;23.60;99.90
42479;DHT22;28110;47.080;9.476;2023-07-30T14:20:44;23.50;99.90
42479;DHT22;28110;47.080;9.476;2023-07-30T14:23:10;23.50;99.90
42479;DHT22;28110;47.080;9.476;2023-07-30T14:25:37;23.40;99.90
42479;DHT22;28110;47.080;9.476;2023-07-30T14:28:02;23.50;99.90
42479;DHT22;28110;47.080;9.476;2023-07-30T14:30:28;23.50;99.90
42479;DHT22;28110;47.080;9.476;2023-07-30T14:32:53;23.50;99.90
42479;DHT22;28110;47.080;9.476;2023-07-30T14:35:19;23.50;99.90
42479;DHT22;28110;47.080;9.476;2023-07-30T14:37:45;23.60;99.90
42479;DHT22;28110;47.080;9.476;2023-07-30T14:40:11;23.70;99.90
42479;DHT22;28110;47.080;9.476;2023-07-30T14:42:36;23.70;99.90
42479;DHT22;28110;47.080;9.476;2023-07-30T14:45:02;23.60;99.90
42479;DHT22;28110;47.080;9.476;2023-07-30T14:47:28;23.60;99.90
42479;DHT22;28110;47.080;9.476;2023-07-30T14:49:54;23.70;99.90
42479;DHT22;28110;47.080;9.476;2023-07-30T14:52:20;23.70;99.90
42479;DHT22;28110;47.080;9.476;2023-07-30T14:54:45;23.70;99.90
42479;DHT22;28110;47.080;9.476;2023-07-30T14:57:11;23.60;99.90
42479;DHT22;28110;47.080;9.476;2023-07-30T14:59:37;23.60;99.90
42479;DHT22;28110;47.080;9.476;2023-07-30T15:02:02;23.60;99.90
42479;DHT22;28110;47.080;9.476;2023-07-30T15:04:28;23.60;99.90
42479;DHT22;28110;47.080;9.476;2023-07-30T15:06:55;23.60;99.90
42479;DHT22;28110;47.080;9.476;2023-07-30T15:09:20;23.50;99.90
42479;DHT22;28110;47.080;9.476;2023-07-30T15:11:46;23.50;99.90
42479;DHT22;28110;47.080;9.476;2023-07-30T15:14:12;23.60;99.90
42479;DHT22;28110;47.080;9.476;2023-07-30T15:16:37;23.50;99.90
42479;DHT22;28110;47.080;9.476;2023-07-30T15:19:03;23.50;99.90
42479;DHT22;28110;47.080;9.476;2023-07-30T15:21:30;23.60;99.90
42479;DHT22;28110;47.080;9.476;2023-07-30T15:23:55;23.70;99.90
42479;DHT22;28110;47.080;9.476;2023-07-30T15:26:21;23.80;99.90
42479;DHT22;28110;47.080;9.476;2023-07-30T15:28:46;23.80;99.90
42479;DHT22;28110;47.080;9.476;2023-07-30T15:31:13;23.80;99.90